Weather History for KMZZ - February, 2013

Change the Weather History Date:

Wednesday, February 27, 2013

  Actual Average (KMIE) Record (KMIE)
Temperature  
Mean Temperature 32 °F 33 °F  
Max Temperature 41 °F 42 °F 65 °F (1976)
Min Temperature 30 °F 25 °F -10 °F (1963)
Degree Days  
Heating Degree Days 33 32  
Month to date heating degree days 957  
Since 1 July heating degree days 4350  
Cooling Degree Days 0 0  
Month to date cooling degree days 0  
Year to date cooling degree days 0  
Moisture  
Dew Point 31 °F    
Average Humidity 94    
Maximum Humidity 99    
Minimum Humidity 88    
Precipitation  
Precipitation 0.02 in 0.08 in 2.10 in (1977)
Month to date precipitation 2.22  
Year to date precipitation 4.45  
Sea Level Pressure  
Sea Level Pressure 29.58 in    
Wind  
Wind Speed 12 mph (WSW)    
Max Wind Speed 21 mph    
Max Gust Speed 26 mph    
Visibility 4 miles    
Events Rain , Snow    
T = Trace of Precipitation, MM = Missing Value Source: NWS Daily Summary

Daily Weather History Graph

Daily Weather History Graph

Search for Another Location

Airport or City:

Trip Planner

Search our weather history database for the weather conditions in past years. The results will help you decide how hot, cold, wet, or windy it might be!

Date:

Astronomy

Feb. 27, 2013 Rise Set
Actual Time 7:19 AM EST 6:32 PM EST
Civil Twilight 6:51 AM EST 6:59 PM EST
Nautical Twilight 6:20 AM EST 7:31 PM EST
Astronomical Twilight 5:48 AM EST 8:02 PM EST
Moon 8:53 PM EST (2/27) 7:53 AM EST (2/27)
Length of Visible Light 12h 08m
Length of Day
11h 13m
Waning Gibbous, 96% of the Moon is Illuminated
Feb 27
Waning Gibbous
Mar 4
Last Quarter
Mar 11
New
Mar 19
First Quarter
Mar 27
Full

Hourly Weather History & Observations

Time (EST) Temp. Windchill Dew Point Humidity Pressure Visibility Wind Dir Wind Speed Gust Speed Precip Events Conditions
12:15 AM 33.4 °F 27.3 °F 32.7 °F 97% 29.45 in 1.0 mi West 6.9 mph - N/A Rain Light Rain
12:35 AM 33.8 °F 29.6 °F 33.1 °F 97% 29.45 in 0.8 mi West 4.6 mph - 0.01 in Rain Light Rain
12:55 AM 34.2 °F 27.5 °F 33.6 °F 98% 29.46 in 1.5 mi West 8.1 mph - 0.01 in Rain Light Rain
1:15 AM 34.2 °F 30.0 °F 33.8 °F 99% 29.47 in 2.0 mi West 4.6 mph - 0.01 in Rain Light Rain
1:35 AM 34.0 °F 28.0 °F 33.4 °F 98% 29.48 in 1.8 mi West 6.9 mph - 0.01 in Rain Light Rain
1:55 AM 34.0 °F 28.8 °F 33.4 °F 98% 29.48 in 1.8 mi West 5.8 mph - 0.01 in   Overcast
2:15 AM 34.2 °F 28.2 °F 33.6 °F 98% 29.49 in 1.0 mi WSW 6.9 mph - N/A Rain Light Rain
2:35 AM 34.2 °F 29.0 °F 33.6 °F 98% 29.49 in 1.0 mi West 5.8 mph - N/A Rain Light Rain
2:55 AM 33.8 °F 27.7 °F 33.3 °F 98% 29.49 in 0.8 mi West 6.9 mph - N/A Rain Light Rain
3:15 AM 34.3 °F 27.0 °F 33.8 °F 98% 29.49 in 2.0 mi WSW 9.2 mph - N/A Rain Light Rain
3:35 AM 34.7 °F 28.1 °F 34.2 °F 98% 29.49 in 1.5 mi WSW 8.1 mph - N/A Rain Light Rain
3:55 AM 34.9 °F 27.7 °F 34.3 °F 98% 29.48 in 1.5 mi WSW 9.2 mph - N/A   Overcast
4:15 AM 34.9 °F 28.3 °F 34.3 °F 98% 29.49 in 1.8 mi WSW 8.1 mph - N/A Snow Light Snow
4:35 AM 34.7 °F 27.5 °F 34.2 °F 98% 29.49 in 2.5 mi WSW 9.2 mph - N/A   Overcast
4:55 AM 34.7 °F 26.4 °F 34.2 °F 98% 29.50 in 2.5 mi WSW 11.5 mph - N/A   Overcast
5:35 AM 34.5 °F 24.5 °F 34.0 °F 98% 29.51 in 3.0 mi WSW 16.1 mph 20.7 mph N/A Rain Light Rain
5:55 AM 34.2 °F 23.3 °F 33.6 °F 98% 29.52 in 4.0 mi West 18.4 mph 26.5 mph N/A   Overcast
6:15 AM 33.8 °F 22.2 °F 33.3 °F 98% 29.53 in 2.5 mi WSW 20.7 mph - N/A Rain Light Rain
6:35 AM 33.3 °F 22.1 °F 32.7 °F 98% 29.54 in 3.0 mi WSW 18.4 mph 24.2 mph N/A Rain Light Rain
6:55 AM 32.9 °F 22.8 °F 32.4 °F 98% 29.54 in 2.5 mi WSW 15.0 mph 23.0 mph N/A Rain Light Rain
7:15 AM 32.9 °F 23.2 °F 32.2 °F 97% 29.54 in 5.0 mi WSW 13.8 mph - N/A   Overcast
7:35 AM 32.9 °F 22.8 °F 32.0 °F 96% 29.55 in 3.0 mi WSW 15.0 mph - N/A   Overcast
7:55 AM 32.9 °F 23.2 °F 32.0 °F 96% 29.56 in 1.2 mi WSW 13.8 mph - N/A Snow Light Snow
8:15 AM 32.7 °F 22.1 °F 32.0 °F 97% 29.57 in 1.0 mi WSW 16.1 mph 20.7 mph N/A Snow Light Snow
8:35 AM 32.9 °F 22.8 °F 32.0 °F 96% 29.58 in 5.0 mi WSW 15.0 mph 20.7 mph N/A   Overcast
8:55 AM 32.7 °F 22.1 °F 31.8 °F 96% 29.58 in 2.0 mi WSW 16.1 mph 20.7 mph N/A   Overcast
9:15 AM 32.5 °F 21.9 °F 31.8 °F 97% 29.58 in 3.0 mi WSW 16.1 mph 21.9 mph N/A   Overcast
9:35 AM 32.4 °F 21.7 °F 32.0 °F 99% 29.59 in 2.0 mi WSW 16.1 mph 21.9 mph N/A   Overcast
10:15 AM 32.4 °F 20.9 °F 31.8 °F 98% 29.59 in 5.0 mi WSW 18.4 mph 25.3 mph N/A   Overcast
10:35 AM 32.5 °F 21.2 °F 31.8 °F 97% 29.59 in 3.0 mi WSW 18.4 mph 23.0 mph N/A   Overcast
10:55 AM 32.5 °F 22.3 °F 31.8 °F 97% 29.60 in 3.0 mi WSW 15.0 mph 23.0 mph N/A Snow Light Snow
11:15 AM 32.7 °F 22.5 °F 31.8 °F 96% 29.60 in 4.0 mi WSW 15.0 mph - N/A   Overcast
11:35 AM 32.7 °F 21.4 °F 31.6 °F 96% 29.59 in 3.0 mi WSW 18.4 mph 21.9 mph N/A Snow Light Snow
11:55 AM 33.1 °F 23.4 °F 31.8 °F 95% 29.59 in 7.0 mi WSW 13.8 mph - N/A   Overcast
12:15 PM 33.1 °F 22.6 °F 31.3 °F 93% 29.59 in 5.0 mi WSW 16.1 mph 24.2 mph N/A   Overcast
12:35 PM 33.8 °F 23.2 °F 30.6 °F 88% 29.59 in 10.0 mi WSW 17.3 mph - N/A   Overcast
12:55 PM 33.6 °F 23.3 °F 30.9 °F 90% 29.59 in 10.0 mi WSW 16.1 mph 23.0 mph N/A   Overcast
1:15 PM 33.8 °F 22.8 °F 30.6 °F 88% 29.59 in 7.0 mi SW 18.4 mph 25.3 mph N/A   Overcast
1:35 PM 33.4 °F 22.0 °F 30.2 °F 88% 29.59 in 5.0 mi WSW 19.6 mph 25.3 mph N/A   Overcast
1:55 PM 33.4 °F 23.5 °F 30.2 °F 88% 29.59 in 10.0 mi WSW 15.0 mph 20.7 mph N/A   Overcast
2:15 PM 33.3 °F 22.8 °F 30.0 °F 88% 29.59 in 10.0 mi WSW 16.1 mph 23.0 mph N/A   Overcast
2:35 PM 33.1 °F 23.4 °F 30.0 °F 89% 29.59 in 10.0 mi WSW 13.8 mph - N/A   Overcast
2:55 PM 32.9 °F 22.0 °F 30.2 °F 90% 29.60 in 7.0 mi WSW 17.3 mph 21.9 mph N/A   Overcast
3:15 PM 32.9 °F 22.0 °F 30.2 °F 90% 29.60 in 3.0 mi WSW 17.3 mph 20.7 mph N/A   Overcast
3:35 PM 32.9 °F 22.8 °F 30.2 °F 90% 29.61 in 4.0 mi WSW 15.0 mph - N/A Snow Light Snow
3:55 PM 32.9 °F 22.8 °F 30.0 °F 89% 29.61 in 7.0 mi WSW 15.0 mph - N/A   Overcast
4:15 PM 32.7 °F 23.0 °F 30.0 °F 90% 29.61 in 5.0 mi WSW 13.8 mph - N/A Snow Light Snow
4:35 PM 32.5 °F 22.3 °F 30.2 °F 91% 29.61 in 3.0 mi WSW 15.0 mph 20.7 mph N/A Snow Light Snow
4:55 PM 32.4 °F 23.0 °F 30.4 °F 92% 29.62 in 3.0 mi WSW 12.7 mph 18.4 mph N/A Snow Light Snow
5:15 PM 32.0 °F 22.1 °F 30.6 °F 94% 29.62 in 0.5 mi WSW 13.8 mph 20.7 mph N/A Snow Light Snow
5:35 PM 32.0 °F 21.6 °F 30.4 °F 94% 29.62 in 2.0 mi WSW 15.0 mph 21.9 mph N/A Snow Light Snow
5:55 PM 32.0 °F 21.6 °F 30.2 °F 93% 29.63 in 2.5 mi WSW 15.0 mph - N/A Snow Light Snow
6:15 PM 32.0 °F 21.6 °F 30.2 °F 93% 29.63 in 2.5 mi WSW 15.0 mph - N/A Snow Light Snow
6:35 PM 32.0 °F 21.6 °F 29.8 °F 92% 29.64 in 3.0 mi WSW 15.0 mph 20.7 mph N/A Snow Light Snow
6:55 PM 32.0 °F 21.2 °F 30.0 °F 92% 29.64 in 4.0 mi WSW 16.1 mph - N/A Snow Light Snow
7:15 PM 32.0 °F 21.6 °F 29.8 °F 92% 29.65 in 5.0 mi WSW 15.0 mph - N/A Snow Light Snow
7:35 PM 32.0 °F 21.2 °F 29.8 °F 92% 29.65 in 7.0 mi WSW 16.1 mph 20.7 mph N/A Snow Light Snow
7:55 PM 31.8 °F 20.2 °F 29.1 °F 90% 29.65 in 4.0 mi West 18.4 mph - N/A Snow Light Snow
8:15 PM 31.5 °F 20.5 °F 28.4 °F 88% 29.65 in 3.0 mi WSW 16.1 mph 21.9 mph N/A Snow Light Snow
8:35 PM 31.1 °F 19.7 °F 28.8 °F 91% 29.65 in 2.5 mi WSW 17.3 mph 21.9 mph N/A Snow Light Snow
9:15 PM 31.1 °F 20.5 °F 29.3 °F 93% 29.65 in 2.5 mi WSW 15.0 mph - N/A Snow Light Snow
9:35 PM 31.1 °F 20.1 °F 29.3 °F 93% 29.65 in 2.0 mi WSW 16.1 mph - N/A Snow Light Snow
9:55 PM 30.9 °F 20.2 °F 29.3 °F 94% 29.65 in 2.0 mi WSW 15.0 mph - N/A Snow Light Snow
10:15 PM 30.9 °F 20.2 °F 29.3 °F 94% 29.65 in 3.0 mi WSW 15.0 mph - N/A Snow Light Snow
10:35 PM 30.9 °F 21.2 °F 29.3 °F 94% 29.65 in 2.5 mi WSW 12.7 mph - N/A Snow Light Snow
10:55 PM 30.9 °F 20.2 °F 29.3 °F 94% 29.65 in 3.0 mi WSW 15.0 mph - N/A Snow Light Snow
11:15 PM 30.9 °F 20.2 °F 29.3 °F 94% 29.64 in 2.5 mi WSW 15.0 mph - N/A Snow Light Snow
11:35 PM 31.1 °F 20.9 °F 29.3 °F 93% 29.64 in 4.0 mi WSW 13.8 mph - N/A Snow Light Snow
11:55 PM 31.1 °F 20.5 °F 29.3 °F 93% 29.64 in 5.0 mi WSW 15.0 mph - N/A Snow Light Snow